createdAt,value
2023-05-21T00:01:26.490Z,5.38
2023-05-21T00:03:53.997Z,5.70
2023-05-21T00:06:23.268Z,6.03
2023-05-21T00:08:50.716Z,6.82
2023-05-21T00:11:18.314Z,5.57
2023-05-21T00:13:45.344Z,5.80
2023-05-21T00:16:12.737Z,5.95
2023-05-21T00:18:42.401Z,6.65
2023-05-21T00:21:09.737Z,5.93
2023-05-21T00:23:37.764Z,5.63
2023-05-21T00:26:05.600Z,6.07
2023-05-21T00:28:32.679Z,5.47
2023-05-21T00:31:00.049Z,6.70
2023-05-21T00:33:29.017Z,5.22
2023-05-21T00:35:56.884Z,5.35
2023-05-21T00:38:24.146Z,5.85
2023-05-21T00:40:51.441Z,4.72
2023-05-21T00:43:18.436Z,4.75
2023-05-21T00:45:47.546Z,4.28
2023-05-21T00:48:14.981Z,4.68
2023-05-21T00:50:42.684Z,5.30
2023-05-21T00:53:10.132Z,4.90
2023-05-21T00:55:38.339Z,3.83
2023-05-21T00:58:06.603Z,4.43
2023-05-21T01:00:34.935Z,4.60
2023-05-21T01:03:02.431Z,4.45
2023-05-21T01:05:30.271Z,4.57
2023-05-21T01:07:58.744Z,4.82
2023-05-21T01:10:27.218Z,4.80
2023-05-21T01:12:57.456Z,4.65
2023-05-21T01:15:25.277Z,4.07
2023-05-21T01:17:53.207Z,4.18
2023-05-21T01:20:20.626Z,4.80
2023-05-21T01:22:55.258Z,4.70
2023-05-21T01:25:24.157Z,4.75
2023-05-21T01:27:51.954Z,4.20
2023-05-21T01:30:20.959Z,4.93
2023-05-21T01:33:02.798Z,4.97
2023-05-21T01:35:44.349Z,4.72
2023-05-21T01:38:45.986Z,4.63
2023-05-21T01:41:17.788Z,4.63
2023-05-21T01:43:46.910Z,4.47
2023-05-21T01:46:20.144Z,5.05
2023-05-21T01:48:49.941Z,5.13
2023-05-21T01:51:17.599Z,4.55
2023-05-21T01:53:44.785Z,5.45
2023-05-21T01:56:12.695Z,5.75
2023-05-21T01:58:39.743Z,5.35
2023-05-21T02:01:07.408Z,5.38
2023-05-21T02:03:34.946Z,5.85
2023-05-21T02:06:02.712Z,5.22
2023-05-21T02:08:29.674Z,6.30
2023-05-21T02:10:57.366Z,5.30
2023-05-21T02:13:26.463Z,6.22
2023-05-21T02:15:54.915Z,6.53
2023-05-21T02:18:22.406Z,7.15
2023-05-21T02:20:50.169Z,6.25
2023-05-21T02:23:17.204Z,6.93
2023-05-21T02:25:44.862Z,7.07
2023-05-21T02:28:12.796Z,7.35
2023-05-21T02:30:40.507Z,6.93
2023-05-21T02:33:09.216Z,7.38
2023-05-21T02:35:36.862Z,7.57
2023-05-21T02:38:04.222Z,6.60
2023-05-21T02:40:33.167Z,6.30
2023-05-21T02:43:00.620Z,6.95
2023-05-21T02:45:30.091Z,7.97
2023-05-21T02:47:57.184Z,7.68
2023-05-21T02:50:24.506Z,7.13
2023-05-21T02:52:52.462Z,8.35
2023-05-21T02:55:19.910Z,7.90
2023-05-21T02:57:46.909Z,7.03
2023-05-21T03:00:14.949Z,7.80
2023-05-21T03:02:43.004Z,7.65
2023-05-21T03:05:10.646Z,7.18
2023-05-21T03:07:37.638Z,7.50
2023-05-21T03:10:05.960Z,7.82
2023-05-21T03:12:32.981Z,6.82
2023-05-21T03:15:00.253Z,6.60
2023-05-21T03:17:27.297Z,7.82
2023-05-21T03:19:54.794Z,8.00
2023-05-21T03:22:21.812Z,6.15
2023-05-21T03:24:49.129Z,7.30
2023-05-21T03:27:16.211Z,7.32
2023-05-21T03:29:43.860Z,7.40
2023-05-21T03:32:11.166Z,6.40
2023-05-21T03:34:38.618Z,7.95
2023-05-21T03:37:05.760Z,7.85
2023-05-21T03:39:33.080Z,7.47
2023-05-21T03:42:00.145Z,7.43
2023-05-21T03:44:28.071Z,6.50
2023-05-21T03:46:55.067Z,8.05
2023-05-21T03:49:22.331Z,7.18
2023-05-21T03:51:49.313Z,6.53
2023-05-21T03:54:16.641Z,6.78
2023-05-21T03:56:43.664Z,6.45
2023-05-21T03:59:11.056Z,6.28
2023-05-21T04:01:39.114Z,6.13
2023-05-21T04:04:06.960Z,6.38
2023-05-21T04:06:34.071Z,6.55
2023-05-21T04:09:01.639Z,6.25
2023-05-21T04:11:28.688Z,6.00
2023-05-21T04:13:56.096Z,6.53
2023-05-21T04:16:24.714Z,6.72
2023-05-21T04:18:52.439Z,6.18
2023-05-21T04:21:19.515Z,6.20
2023-05-21T04:23:47.080Z,6.32
2023-05-21T04:26:16.301Z,6.30
2023-05-21T04:28:43.638Z,6.22
2023-05-21T04:31:13.039Z,5.65
2023-05-21T04:33:42.259Z,5.60
2023-05-21T04:36:10.613Z,5.45
2023-05-21T04:38:39.852Z,5.55
2023-05-21T04:41:07.057Z,5.78
2023-05-21T04:43:34.393Z,4.68
2023-05-21T04:46:01.473Z,5.40
2023-05-21T04:48:29.082Z,4.80
2023-05-21T04:50:56.865Z,4.85
2023-05-21T04:53:26.100Z,5.13
2023-05-21T04:55:53.380Z,4.63
2023-05-21T04:58:20.686Z,4.57
2023-05-21T05:00:50.899Z,4.85
2023-05-21T05:03:18.824Z,4.72
2023-05-21T05:05:46.633Z,4.32
2023-05-21T05:08:15.933Z,4.43
2023-05-21T05:10:43.370Z,3.90
2023-05-21T05:13:10.930Z,4.30
2023-05-21T05:15:38.199Z,4.18
2023-05-21T05:18:08.705Z,4.63
2023-05-21T05:20:35.837Z,4.40
2023-05-21T05:23:03.214Z,3.75
2023-05-21T05:25:30.476Z,4.00
2023-05-21T05:27:57.919Z,3.47
2023-05-21T05:30:24.951Z,3.65
2023-05-21T05:32:52.426Z,3.80
2023-05-21T05:35:19.540Z,3.47
2023-05-21T05:37:46.924Z,3.60
2023-05-21T05:40:13.917Z,2.83
2023-05-21T05:42:41.340Z,3.22
2023-05-21T05:45:09.006Z,3.60
2023-05-21T05:47:36.691Z,3.88
2023-05-21T05:50:04.000Z,2.95
2023-05-21T05:52:31.251Z,3.45
2023-05-21T05:54:58.464Z,2.72
2023-05-21T05:57:25.789Z,3.05
2023-05-21T05:59:52.789Z,2.80
2023-05-21T06:02:20.136Z,3.00
2023-05-21T06:04:47.189Z,2.30
2023-05-21T06:07:14.747Z,2.45
2023-05-21T06:09:41.795Z,2.50
2023-05-21T06:12:12.267Z,2.78
2023-05-21T06:14:45.046Z,1.80
2023-05-21T06:17:15.520Z,2.25
2023-05-21T06:19:42.885Z,2.30
2023-05-21T06:22:10.595Z,2.38
2023-05-21T06:24:38.213Z,2.10
2023-05-21T06:27:06.122Z,2.05
2023-05-21T06:29:33.268Z,1.80
2023-05-21T06:32:01.958Z,1.90
2023-05-21T06:34:29.545Z,2.58
2023-05-21T06:36:57.113Z,2.10
2023-05-21T06:39:24.676Z,1.85
2023-05-21T06:41:51.943Z,1.88
2023-05-21T06:44:18.937Z,2.17
2023-05-21T06:46:46.472Z,2.03
2023-05-21T06:49:14.609Z,1.80
2023-05-21T06:51:42.094Z,2.15
2023-05-21T06:54:09.200Z,1.60
2023-05-21T06:56:36.459Z,2.00
2023-05-21T06:59:03.526Z,1.55
2023-05-21T07:01:30.828Z,1.60
2023-05-21T07:03:58.696Z,1.75
2023-05-21T07:06:25.776Z,1.48
2023-05-21T07:08:53.095Z,1.50
2023-05-21T07:11:20.142Z,1.35
2023-05-21T07:13:47.464Z,1.70
2023-05-21T07:16:14.593Z,1.63
2023-05-21T07:18:42.350Z,1.83
2023-05-21T07:21:09.522Z,1.50
2023-05-21T07:23:36.772Z,1.65
2023-05-21T07:26:03.970Z,1.30
2023-05-21T07:28:31.516Z,1.35
2023-05-21T07:30:58.579Z,1.70
2023-05-21T07:33:25.882Z,1.40
2023-05-21T07:35:52.973Z,1.58
2023-05-21T07:38:20.329Z,1.67
2023-05-21T07:40:47.344Z,1.40
2023-05-21T07:43:14.730Z,1.83
2023-05-21T07:45:41.799Z,1.35
2023-05-21T07:48:09.095Z,1.10
2023-05-21T07:50:36.094Z,1.20
2023-05-21T07:53:03.860Z,1.17
2023-05-21T07:55:31.118Z,0.95
2023-05-21T07:57:59.757Z,1.25
2023-05-21T08:00:26.809Z,1.42
2023-05-21T08:02:54.198Z,1.52
2023-05-21T08:05:23.446Z,1.42
2023-05-21T08:07:50.870Z,1.60
2023-05-21T08:10:19.394Z,1.67
2023-05-21T08:12:46.919Z,1.55
2023-05-21T08:15:13.931Z,1.05
2023-05-21T08:17:41.825Z,1.38
2023-05-21T08:20:09.371Z,1.35
2023-05-21T08:22:36.924Z,1.42
2023-05-21T08:25:04.191Z,1.75
2023-05-21T08:27:31.493Z,1.38
2023-05-21T08:29:58.551Z,1.30
2023-05-21T08:32:26.180Z,1.15
2023-05-21T08:34:53.257Z,1.15
2023-05-21T08:37:21.713Z,1.75
2023-05-21T08:39:48.911Z,0.98
2023-05-21T08:42:37.405Z,0.90
2023-05-21T08:45:06.836Z,0.80
2023-05-21T08:47:37.036Z,1.52
2023-05-21T08:50:05.266Z,0.80
2023-05-21T08:52:32.931Z,0.90
2023-05-21T08:55:00.405Z,1.20
2023-05-21T08:57:28.720Z,0.73
2023-05-21T08:59:55.737Z,0.80
2023-05-21T09:02:25.208Z,0.65
2023-05-21T09:04:57.456Z,0.70
2023-05-21T09:07:29.196Z,1.00
2023-05-21T09:09:58.009Z,1.00
2023-05-21T09:12:25.630Z,0.82
2023-05-21T09:14:53.075Z,0.68
2023-05-21T09:17:20.882Z,0.90
2023-05-21T09:20:14.499Z,0.70
2023-05-21T09:22:46.322Z,0.90
2023-05-21T09:25:15.785Z,0.88
2023-05-21T09:27:43.888Z,1.23
2023-05-21T09:30:12.701Z,0.77
2023-05-21T09:32:41.065Z,0.65
2023-05-21T09:35:16.913Z,0.85
2023-05-21T09:37:47.367Z,0.93
2023-05-21T09:40:19.204Z,0.98
2023-05-21T09:42:51.840Z,0.70
2023-05-21T09:45:23.859Z,0.73
2023-05-21T09:47:53.733Z,0.60
2023-05-21T09:50:22.008Z,0.60
2023-05-21T09:52:53.017Z,0.45
2023-05-21T09:55:23.454Z,0.73
2023-05-21T09:57:51.481Z,0.60
2023-05-21T10:00:21.271Z,0.57
2023-05-21T10:02:50.103Z,0.70
2023-05-21T10:05:17.750Z,0.98
2023-05-21T10:07:53.606Z,0.70
2023-05-21T10:10:24.624Z,0.80
2023-05-21T10:12:58.211Z,0.90
2023-05-21T10:15:27.943Z,0.60
2023-05-21T10:17:56.371Z,0.55
2023-05-21T10:20:23.863Z,0.68
2023-05-21T10:22:51.709Z,0.57
2023-05-21T10:25:20.333Z,0.75
2023-05-21T10:27:48.966Z,0.88
2023-05-21T10:30:18.190Z,0.60
2023-05-21T10:32:47.894Z,0.65
2023-05-21T10:35:17.209Z,0.70
2023-05-21T10:37:45.818Z,0.70
2023-05-21T10:40:13.624Z,0.90
2023-05-21T10:42:49.220Z,1.00
2023-05-21T10:45:21.550Z,0.63
2023-05-21T10:48:18.496Z,0.70
2023-05-21T10:50:56.663Z,0.65
2023-05-21T10:53:33.169Z,0.60
2023-05-21T10:56:15.586Z,0.88
2023-05-21T11:01:11.302Z,0.75
2023-05-21T11:03:38.994Z,0.93
2023-05-21T11:06:06.566Z,0.80
2023-05-21T11:08:38.939Z,0.73
2023-05-21T11:11:06.263Z,0.80
2023-05-21T11:13:50.504Z,0.90
2023-05-21T11:16:18.278Z,0.85
2023-05-21T11:18:45.997Z,0.55
2023-05-21T11:21:17.486Z,0.73
2023-05-21T11:23:51.271Z,0.93
2023-05-21T11:26:23.947Z,0.80
2023-05-21T11:29:11.861Z,0.90
2023-05-21T11:31:39.113Z,0.70
2023-05-21T11:34:14.206Z,0.60
2023-05-21T11:36:42.435Z,0.85
2023-05-21T11:39:15.436Z,1.23
2023-05-21T11:44:45.195Z,0.70
2023-05-21T11:47:17.987Z,0.80
2023-05-21T11:49:46.389Z,0.50
2023-05-21T11:52:14.414Z,0.77
2023-05-21T11:54:48.566Z,0.80
2023-05-21T11:57:17.272Z,0.82
2023-05-21T11:59:49.608Z,0.90
2023-05-21T12:02:18.287Z,1.00
2023-05-21T12:04:48.595Z,1.10
2023-05-21T12:07:18.010Z,0.82
2023-05-21T12:09:46.995Z,0.52
2023-05-21T12:12:19.559Z,0.90
2023-05-21T12:14:49.172Z,0.88
2023-05-21T12:17:17.774Z,0.77
2023-05-21T12:19:46.646Z,0.80
2023-05-21T12:22:15.454Z,0.90
2023-05-21T12:24:44.136Z,0.90
2023-05-21T12:27:13.250Z,0.90
2023-05-21T12:29:43.248Z,0.93
2023-05-21T12:32:13.052Z,0.90
2023-05-21T12:34:43.315Z,0.70
2023-05-21T12:37:22.242Z,0.85
2023-05-21T12:39:53.299Z,1.40
2023-05-21T12:42:29.959Z,0.85
2023-05-21T12:44:58.126Z,1.00
2023-05-21T12:47:27.021Z,0.90
2023-05-21T12:49:58.086Z,0.95
2023-05-21T12:52:25.871Z,1.17
2023-05-21T12:54:56.321Z,1.00
2023-05-21T12:57:28.283Z,0.80
2023-05-21T13:00:01.007Z,0.80
2023-05-21T13:02:34.156Z,1.05
2023-05-21T13:05:08.044Z,0.80
2023-05-21T13:07:37.772Z,0.60
2023-05-21T13:10:06.365Z,1.08
2023-05-21T13:12:34.711Z,0.63
2023-05-21T13:15:04.563Z,1.10
2023-05-21T13:17:31.723Z,1.00
2023-05-21T13:20:15.390Z,0.80
2023-05-21T13:22:47.331Z,0.88
2023-05-21T13:25:24.585Z,1.20
2023-05-21T13:27:52.981Z,1.20
2023-05-21T13:30:22.045Z,1.05
2023-05-21T13:32:49.553Z,0.93
2023-05-21T13:35:17.682Z,0.93
2023-05-21T13:37:45.304Z,0.70
2023-05-21T13:40:15.169Z,0.80
2023-05-21T13:42:47.365Z,0.70
2023-05-21T13:45:17.399Z,0.80
2023-05-21T13:47:46.062Z,1.30
2023-05-21T13:50:14.087Z,1.10
2023-05-21T13:52:41.767Z,1.10
2023-05-21T13:55:10.569Z,0.80
2023-05-21T13:57:37.791Z,0.82
2023-05-21T14:00:06.111Z,0.90
2023-05-21T14:02:34.660Z,0.70
2023-05-21T14:05:02.316Z,0.75
2023-05-21T14:07:29.532Z,0.98
2023-05-21T14:09:56.839Z,0.95
2023-05-21T14:12:23.973Z,0.88
2023-05-21T14:14:51.705Z,0.70
2023-05-21T14:17:18.731Z,0.85
2023-05-21T14:19:46.009Z,0.90
2023-05-21T14:22:13.252Z,0.80
2023-05-21T14:24:40.820Z,0.88
2023-05-21T14:27:07.816Z,0.70
2023-05-21T14:29:35.134Z,0.88
2023-05-21T14:32:02.161Z,0.80
2023-05-21T14:34:29.543Z,1.10
2023-05-21T14:36:56.648Z,1.20
2023-05-21T14:39:24.229Z,1.13
2023-05-21T14:41:51.345Z,0.90
2023-05-21T14:44:19.864Z,0.70
2023-05-21T14:46:46.942Z,0.70
2023-05-21T14:49:14.631Z,1.30
2023-05-21T14:51:42.493Z,1.00
2023-05-21T14:54:09.808Z,0.82
2023-05-21T14:56:36.844Z,0.73
2023-05-21T14:59:04.513Z,1.08
2023-05-21T15:01:31.779Z,0.80
2023-05-21T15:03:59.406Z,0.90
2023-05-21T15:06:26.561Z,0.80
2023-05-21T15:08:54.159Z,1.13
2023-05-21T15:11:21.534Z,1.40
2023-05-21T15:13:48.973Z,1.17
2023-05-21T15:16:18.080Z,1.20
2023-05-21T15:18:47.295Z,0.98
2023-05-21T15:21:15.658Z,1.23
2023-05-21T15:23:43.005Z,1.17
2023-05-21T15:26:10.031Z,0.90
2023-05-21T15:28:37.447Z,0.85
2023-05-21T15:31:04.539Z,0.98
2023-05-21T15:33:31.975Z,0.88
2023-05-21T15:35:59.406Z,0.63
2023-05-21T15:38:26.967Z,1.02
2023-05-21T15:40:54.269Z,1.23
2023-05-21T15:43:21.666Z,1.33
2023-05-21T15:45:48.785Z,1.23
2023-05-21T15:48:22.430Z,1.25
2023-05-21T15:50:50.084Z,1.15
2023-05-21T15:53:17.467Z,1.15
2023-05-21T15:55:44.868Z,1.00
2023-05-21T15:58:12.488Z,0.98
2023-05-21T16:00:39.546Z,0.90
2023-05-21T16:03:07.668Z,1.05
2023-05-21T16:05:34.962Z,1.00
2023-05-21T16:08:02.348Z,1.08
2023-05-21T16:10:29.557Z,1.02
2023-05-21T16:12:56.964Z,0.82
2023-05-21T16:15:24.045Z,1.02
2023-05-21T16:17:51.766Z,1.00
2023-05-21T16:20:18.892Z,1.33
2023-05-21T16:22:46.676Z,1.38
2023-05-21T16:25:13.665Z,1.30
2023-05-21T16:27:40.999Z,1.42
2023-05-21T16:30:08.591Z,1.48
2023-05-21T16:32:35.937Z,1.20
2023-05-21T16:35:04.222Z,1.38
2023-05-21T16:37:31.502Z,0.88
2023-05-21T16:39:58.950Z,1.10
2023-05-21T16:42:26.467Z,1.38
2023-05-21T16:44:53.490Z,0.95
2023-05-21T16:47:20.815Z,1.20
2023-05-21T16:49:48.204Z,1.35
2023-05-21T16:52:15.741Z,1.02
2023-05-21T16:54:44.757Z,1.20
2023-05-21T16:57:13.075Z,0.93
2023-05-21T16:59:40.546Z,1.20
2023-05-21T17:02:10.762Z,1.20
2023-05-21T17:04:38.229Z,1.20
2023-05-21T17:07:06.412Z,1.25
2023-05-21T17:09:33.669Z,1.50
2023-05-21T17:12:01.362Z,1.30
2023-05-21T17:16:59.908Z,0.98
2023-05-21T17:19:27.036Z,1.15
2023-05-21T17:21:57.247Z,1.90
2023-05-21T17:24:24.454Z,1.38
2023-05-21T17:26:53.276Z,1.33
2023-05-21T17:29:20.375Z,1.08
2023-05-21T17:31:48.136Z,1.40
2023-05-21T17:34:16.693Z,1.25
2023-05-21T17:36:44.385Z,1.33
2023-05-21T17:39:11.656Z,1.25
2023-05-21T17:41:39.236Z,1.15
2023-05-21T17:44:06.251Z,1.10
2023-05-21T17:46:34.542Z,1.30
2023-05-21T17:49:02.483Z,1.10
2023-05-21T17:51:29.851Z,1.00
2023-05-21T17:53:57.103Z,1.30
2023-05-21T17:56:24.578Z,1.45
2023-05-21T17:58:51.791Z,1.23
2023-05-21T18:01:19.910Z,1.63
2023-05-21T18:03:47.928Z,1.60
2023-05-21T18:06:15.896Z,1.50
2023-05-21T18:08:42.935Z,1.20
2023-05-21T18:11:10.305Z,1.33
2023-05-21T18:13:37.739Z,1.65
2023-05-21T18:16:05.523Z,1.23
2023-05-21T18:18:32.570Z,1.27
2023-05-21T18:21:01.494Z,1.58
2023-05-21T18:23:30.538Z,1.63
2023-05-21T18:25:58.855Z,1.50
2023-05-21T18:28:27.540Z,1.60
2023-05-21T18:31:00.785Z,1.60
2023-05-21T18:33:28.312Z,1.85
2023-05-21T18:35:57.155Z,1.70
2023-05-21T18:38:25.023Z,1.15
2023-05-21T18:40:52.771Z,1.70
2023-05-21T18:43:19.857Z,1.95
2023-05-21T18:45:47.626Z,1.80
2023-05-21T18:48:15.419Z,1.98
2023-05-21T18:50:43.114Z,2.10
2023-05-21T18:53:10.872Z,2.20
2023-05-21T18:55:38.136Z,2.10
2023-05-21T18:58:05.920Z,2.38
2023-05-21T19:00:34.642Z,1.83
2023-05-21T19:03:02.512Z,2.25
2023-05-21T19:05:31.694Z,1.95
2023-05-21T19:07:59.613Z,2.33
2023-05-21T19:10:27.060Z,2.20
2023-05-21T19:12:54.541Z,1.88
2023-05-21T19:15:22.100Z,2.15
2023-05-21T19:17:49.411Z,1.55
2023-05-21T19:20:26.419Z,1.58
2023-05-21T19:22:54.498Z,1.95
2023-05-21T19:25:21.775Z,2.70
2023-05-21T19:27:48.799Z,2.00
2023-05-21T19:30:16.223Z,2.05
2023-05-21T19:32:43.367Z,2.95
2023-05-21T19:35:14.115Z,5.40
2023-05-21T19:37:41.107Z,4.75
2023-05-21T19:40:09.039Z,2.90
2023-05-21T19:42:37.102Z,2.60
2023-05-21T19:45:09.338Z,3.00
2023-05-21T19:47:36.590Z,3.22
2023-05-21T19:50:04.411Z,3.67
2023-05-21T19:52:31.493Z,5.15
2023-05-21T19:55:05.737Z,3.92
2023-05-21T19:57:32.930Z,3.85
2023-05-21T20:00:00.491Z,3.28
2023-05-21T20:02:28.808Z,3.63
2023-05-21T20:04:57.780Z,3.58
2023-05-21T20:07:25.040Z,3.63
2023-05-21T20:09:52.516Z,2.92
2023-05-21T20:12:19.607Z,3.00
2023-05-21T20:14:47.719Z,2.72
2023-05-21T20:17:15.301Z,3.10
2023-05-21T20:19:44.085Z,2.08
2023-05-21T20:22:11.202Z,2.28
2023-05-21T20:24:38.659Z,3.03
2023-05-21T20:27:06.075Z,2.22
2023-05-21T20:29:33.425Z,2.47
2023-05-21T20:32:00.429Z,2.53
2023-05-21T20:34:28.145Z,2.00
2023-05-21T20:36:58.102Z,1.98
2023-05-21T20:39:29.849Z,2.30
2023-05-21T20:41:58.410Z,2.30
2023-05-21T20:44:27.571Z,2.42
2023-05-21T20:46:54.695Z,2.72
2023-05-21T20:49:24.938Z,2.85
2023-05-21T20:51:52.192Z,2.55
2023-05-21T20:54:21.894Z,2.45
2023-05-21T20:56:50.811Z,2.65
2023-05-21T20:59:18.212Z,2.58
2023-05-21T21:01:45.295Z,2.78
2023-05-21T21:04:12.721Z,2.60
2023-05-21T21:06:40.505Z,2.70
2023-05-21T21:09:08.595Z,2.80
2023-05-21T21:11:35.719Z,3.00
2023-05-21T21:14:03.315Z,2.30
2023-05-21T21:16:30.459Z,2.83
2023-05-21T21:18:57.998Z,2.45
2023-05-21T21:21:25.493Z,2.28
2023-05-21T21:23:53.116Z,2.70
2023-05-21T21:26:20.135Z,2.67
2023-05-21T21:28:47.512Z,2.58
2023-05-21T21:31:14.612Z,2.40
2023-05-21T21:33:42.143Z,2.83
2023-05-21T21:36:14.313Z,2.25
2023-05-21T21:38:41.569Z,2.85
2023-05-21T21:41:08.618Z,2.20
2023-05-21T21:43:36.590Z,2.40
2023-05-21T21:46:03.773Z,2.20
2023-05-21T21:48:31.072Z,2.10
2023-05-21T21:50:58.989Z,2.80
2023-05-21T21:53:26.657Z,2.25
2023-05-21T21:55:55.119Z,2.00
2023-05-21T21:58:22.831Z,2.40
2023-05-21T22:00:49.879Z,2.35
2023-05-21T22:03:17.273Z,3.35
2023-05-21T22:05:44.380Z,2.90
2023-05-21T22:08:11.688Z,2.67
2023-05-21T22:10:39.376Z,2.80
2023-05-21T22:13:07.036Z,2.28
2023-05-21T22:15:35.879Z,3.10
2023-05-21T22:18:03.449Z,2.65
2023-05-21T22:20:30.713Z,2.95
2023-05-21T22:22:58.180Z,2.83
2023-05-21T22:25:25.624Z,2.47
2023-05-21T22:27:53.179Z,3.22
2023-05-21T22:30:20.266Z,2.70
2023-05-21T22:32:48.988Z,2.38
2023-05-21T22:35:16.135Z,2.10
2023-05-21T22:37:43.410Z,2.58
2023-05-21T22:40:10.839Z,2.85
2023-05-21T22:42:38.765Z,2.85
2023-05-21T22:45:06.766Z,2.80
2023-05-21T22:47:37.178Z,2.72
2023-05-21T22:50:04.554Z,2.70
2023-05-21T22:52:32.519Z,2.58
2023-05-21T22:55:00.751Z,2.45
2023-05-21T22:57:31.065Z,2.58
2023-05-21T22:59:58.294Z,2.80
2023-05-21T23:02:26.147Z,2.47
2023-05-21T23:04:55.114Z,3.35
2023-05-21T23:07:24.572Z,3.05
2023-05-21T23:09:51.892Z,2.80
2023-05-21T23:12:19.231Z,2.97
2023-05-21T23:14:46.686Z,3.00
2023-05-21T23:17:16.081Z,3.00
2023-05-21T23:19:44.259Z,3.35
2023-05-21T23:22:14.238Z,3.15
2023-05-21T23:24:46.644Z,2.72
2023-05-21T23:27:15.975Z,2.75
2023-05-21T23:29:43.572Z,2.33
2023-05-21T23:32:13.990Z,2.67
2023-05-21T23:34:42.041Z,2.72
2023-05-21T23:37:09.637Z,3.15
2023-05-21T23:39:36.798Z,3.20
2023-05-21T23:42:04.369Z,3.15
2023-05-21T23:44:31.485Z,3.28
2023-05-21T23:46:58.792Z,3.47
2023-05-21T23:49:25.826Z,2.72
2023-05-21T23:51:53.721Z,2.88
2023-05-21T23:54:20.867Z,2.88
2023-05-21T23:56:48.180Z,3.17
2023-05-21T23:59:17.602Z,3.13
